createdAt,value
2023-05-19T00:01:55.435Z,74.80
2023-05-19T00:04:23.246Z,75.00
2023-05-19T00:06:54.207Z,75.10
2023-05-19T00:09:21.459Z,75.50
2023-05-19T00:11:48.553Z,75.20
2023-05-19T00:14:15.686Z,75.20
2023-05-19T00:16:42.947Z,75.40
2023-05-19T00:19:10.347Z,75.20
2023-05-19T00:21:39.047Z,75.60
2023-05-19T00:24:06.865Z,75.40
2023-05-19T00:26:33.820Z,75.50
2023-05-19T00:29:01.008Z,75.10
2023-05-19T00:31:28.960Z,74.80
2023-05-19T00:33:55.964Z,75.00
2023-05-19T00:36:23.153Z,74.90
2023-05-19T00:38:51.381Z,74.90
2023-05-19T00:41:18.452Z,74.90
2023-05-19T00:43:45.700Z,74.80
2023-05-19T00:46:12.739Z,75.60
2023-05-19T00:48:39.788Z,75.50
2023-05-19T00:51:07.169Z,75.20
2023-05-19T00:53:34.868Z,75.50
2023-05-19T00:56:03.075Z,75.10
2023-05-19T00:58:32.679Z,75.10
2023-05-19T01:01:03.672Z,75.20
2023-05-19T01:03:32.974Z,74.90
2023-05-19T01:06:04.923Z,75.20
2023-05-19T01:08:37.708Z,75.10
2023-05-19T01:11:06.715Z,75.10
2023-05-19T01:13:34.580Z,75.10
2023-05-19T01:16:13.142Z,74.90
2023-05-19T01:18:47.548Z,75.10
2023-05-19T01:21:36.553Z,74.70
2023-05-19T01:24:32.420Z,74.80
2023-05-19T01:27:17.947Z,74.80
2023-05-19T01:30:26.725Z,74.80
2023-05-19T01:32:57.279Z,75.00
2023-05-19T01:35:26.288Z,75.00
2023-05-19T01:37:57.190Z,75.30
2023-05-19T01:40:25.706Z,75.20
2023-05-19T01:42:59.158Z,75.20
2023-05-19T01:45:28.297Z,75.30
2023-05-19T01:47:57.591Z,75.30
2023-05-19T01:50:24.910Z,75.30
2023-05-19T01:52:52.412Z,75.30
2023-05-19T01:55:21.267Z,75.40
2023-05-19T01:57:51.132Z,75.10
2023-05-19T02:00:47.212Z,75.10
2023-05-19T02:03:32.698Z,75.00
2023-05-19T02:06:06.497Z,75.10
2023-05-19T02:08:55.650Z,75.40
2023-05-19T02:11:29.178Z,75.10
2023-05-19T02:14:00.169Z,74.90
2023-05-19T02:16:29.088Z,74.90
2023-05-19T02:18:56.613Z,75.00
2023-05-19T02:21:23.597Z,75.00
2023-05-19T02:23:51.224Z,75.20
2023-05-19T02:26:18.146Z,75.10
2023-05-19T02:28:45.084Z,75.00
2023-05-19T02:31:12.001Z,75.00
2023-05-19T02:33:38.894Z,74.90
2023-05-19T02:36:06.449Z,75.10
2023-05-19T02:38:33.540Z,75.00
2023-05-19T02:41:03.460Z,75.10
2023-05-19T02:43:30.685Z,75.20
2023-05-19T02:46:00.278Z,74.90
2023-05-19T02:48:27.445Z,74.80
2023-05-19T02:50:54.425Z,75.00
2023-05-19T02:53:21.322Z,74.70
2023-05-19T02:55:48.224Z,74.90
2023-05-19T02:58:15.191Z,74.80
2023-05-19T03:00:42.076Z,74.60
2023-05-19T03:03:10.559Z,74.90
2023-05-19T03:05:37.597Z,74.80
2023-05-19T03:08:04.722Z,74.80
2023-05-19T03:10:31.849Z,74.80
2023-05-19T03:12:58.916Z,74.90
2023-05-19T03:15:25.910Z,74.80
2023-05-19T03:17:52.959Z,74.90
2023-05-19T03:20:19.993Z,74.90
2023-05-19T03:22:46.990Z,75.00
2023-05-19T03:25:14.989Z,74.80
2023-05-19T03:27:41.898Z,74.70
2023-05-19T03:30:09.523Z,74.80
2023-05-19T03:32:38.074Z,74.80
2023-05-19T03:35:05.804Z,75.20
2023-05-19T03:37:32.806Z,74.60
2023-05-19T03:40:00.330Z,74.60
2023-05-19T03:42:27.232Z,74.50
2023-05-19T03:44:54.220Z,74.60
2023-05-19T03:47:21.135Z,74.50
2023-05-19T03:49:48.253Z,74.40
2023-05-19T03:52:15.772Z,74.30
2023-05-19T03:54:43.254Z,74.40
2023-05-19T03:57:11.246Z,74.40
2023-05-19T03:59:38.409Z,74.40
2023-05-19T04:02:05.613Z,74.50
2023-05-19T04:04:32.766Z,74.50
2023-05-19T04:06:59.908Z,74.60
2023-05-19T04:09:26.846Z,74.50
2023-05-19T04:11:53.797Z,74.80
2023-05-19T04:14:21.281Z,75.00
2023-05-19T04:16:48.265Z,75.10
2023-05-19T04:19:15.272Z,75.20
2023-05-19T04:21:42.243Z,75.30
2023-05-19T04:24:09.340Z,75.50
2023-05-19T04:26:38.425Z,75.40
2023-05-19T04:29:05.348Z,75.50
2023-05-19T04:31:34.436Z,75.70
2023-05-19T04:34:01.918Z,75.60
2023-05-19T04:36:28.793Z,75.60
2023-05-19T04:39:02.506Z,75.70
2023-05-19T04:41:29.575Z,75.70
2023-05-19T04:43:57.645Z,75.80
2023-05-19T04:46:26.203Z,75.80
2023-05-19T04:48:55.400Z,75.90
2023-05-19T04:51:22.386Z,76.00
2023-05-19T04:53:49.454Z,76.20
2023-05-19T04:56:16.505Z,76.40
2023-05-19T04:58:44.848Z,76.20
2023-05-19T05:01:13.969Z,76.30
2023-05-19T05:03:40.923Z,76.70
2023-05-19T05:06:08.914Z,76.80
2023-05-19T05:08:37.436Z,76.90
2023-05-19T05:11:04.619Z,76.80
2023-05-19T05:13:31.805Z,76.90
2023-05-19T05:15:59.418Z,76.70
2023-05-19T05:18:26.709Z,77.00
2023-05-19T05:20:53.873Z,76.90
2023-05-19T05:23:21.100Z,76.70
2023-05-19T05:25:48.314Z,76.60
2023-05-19T05:28:15.302Z,76.50
2023-05-19T05:30:42.250Z,76.50
2023-05-19T05:33:09.655Z,76.50
2023-05-19T05:35:36.842Z,76.40
2023-05-19T05:38:04.070Z,76.40
2023-05-19T05:40:31.072Z,76.60
2023-05-19T05:42:59.203Z,76.50
2023-05-19T05:45:26.473Z,76.50
2023-05-19T05:47:53.880Z,76.60
2023-05-19T05:50:22.220Z,76.70
2023-05-19T05:52:51.071Z,76.50
2023-05-19T05:55:18.414Z,76.60
2023-05-19T05:57:47.674Z,76.40
2023-05-19T06:00:17.654Z,76.50
2023-05-19T06:02:49.050Z,76.50
2023-05-19T06:05:16.653Z,76.40
2023-05-19T06:07:44.026Z,76.40
2023-05-19T06:10:12.512Z,76.40
2023-05-19T06:12:40.794Z,76.40
2023-05-19T06:15:08.270Z,76.40
2023-05-19T06:17:38.328Z,76.40
2023-05-19T06:20:06.381Z,76.40
2023-05-19T06:22:33.367Z,76.40
2023-05-19T06:25:00.337Z,76.40
2023-05-19T06:27:27.277Z,76.50
2023-05-19T06:29:54.349Z,76.60
2023-05-19T06:32:21.352Z,76.60
2023-05-19T06:34:54.321Z,76.60
2023-05-19T06:37:23.037Z,76.70
2023-05-19T06:39:52.462Z,76.70
2023-05-19T06:42:23.016Z,76.80
2023-05-19T06:44:50.657Z,76.80
2023-05-19T06:47:17.878Z,76.60
2023-05-19T06:49:45.904Z,76.70
2023-05-19T06:52:14.275Z,76.80
2023-05-19T06:54:41.183Z,76.90
2023-05-19T06:57:08.108Z,76.90
2023-05-19T06:59:35.041Z,76.80
2023-05-19T07:02:02.601Z,77.00
2023-05-19T07:04:29.587Z,77.20
2023-05-19T07:06:57.426Z,77.10
2023-05-19T07:09:24.431Z,74.20
2023-05-19T07:11:52.895Z,69.90
2023-05-19T07:14:20.994Z,67.60
2023-05-19T07:16:50.267Z,66.30
2023-05-19T07:19:19.728Z,66.00
2023-05-19T07:21:47.718Z,65.50
2023-05-19T07:24:14.665Z,63.70
2023-05-19T07:26:42.911Z,63.70
2023-05-19T07:29:09.866Z,62.40
2023-05-19T07:31:36.909Z,62.50
2023-05-19T07:34:05.310Z,61.90
2023-05-19T07:36:32.896Z,61.30
2023-05-19T07:38:59.878Z,60.10
2023-05-19T07:41:26.895Z,59.60
2023-05-19T07:43:54.915Z,58.60
2023-05-19T07:46:23.166Z,58.50
2023-05-19T07:48:50.148Z,57.40
2023-05-19T07:51:17.134Z,57.00
2023-05-19T07:53:44.129Z,56.10
2023-05-19T07:56:11.023Z,56.10
2023-05-19T07:58:38.044Z,55.10
2023-05-19T08:01:05.117Z,54.60
2023-05-19T08:03:32.166Z,54.00
2023-05-19T08:05:59.314Z,53.80
2023-05-19T08:08:27.028Z,53.80
2023-05-19T08:10:54.275Z,53.30
2023-05-19T08:13:21.930Z,54.80
2023-05-19T08:15:50.456Z,55.60
2023-05-19T08:18:17.387Z,56.40
2023-05-19T08:20:44.491Z,56.80
2023-05-19T08:23:12.402Z,57.30
2023-05-19T08:25:39.362Z,57.60
2023-05-19T08:28:06.569Z,57.90
2023-05-19T08:30:34.227Z,58.20
2023-05-19T08:33:02.328Z,58.30
2023-05-19T08:35:29.435Z,58.60
2023-05-19T08:37:56.494Z,58.60
2023-05-19T08:40:23.651Z,58.70
2023-05-19T08:42:50.770Z,58.90
2023-05-19T08:45:21.275Z,59.10
2023-05-19T08:47:52.453Z,59.30
2023-05-19T08:50:24.961Z,59.80
2023-05-19T08:53:01.665Z,60.00
2023-05-19T08:55:46.971Z,60.40
2023-05-19T08:58:15.731Z,60.80
2023-05-19T09:00:44.268Z,60.90
2023-05-19T09:05:44.642Z,61.30
2023-05-19T09:08:11.896Z,61.30
2023-05-19T09:10:40.129Z,61.70
2023-05-19T09:13:07.091Z,61.60
2023-05-19T09:15:36.915Z,61.40
2023-05-19T09:18:08.614Z,61.50
2023-05-19T09:20:40.851Z,61.60
2023-05-19T09:23:08.534Z,61.90
2023-05-19T09:25:35.650Z,62.10
2023-05-19T09:28:02.880Z,62.30
2023-05-19T09:30:30.141Z,62.80
2023-05-19T09:32:58.197Z,63.20
2023-05-19T09:35:25.168Z,63.30
2023-05-19T09:37:52.772Z,63.40
2023-05-19T09:40:19.919Z,63.40
2023-05-19T09:42:48.830Z,63.50
2023-05-19T09:45:16.550Z,63.60
2023-05-19T09:47:46.473Z,64.20
2023-05-19T09:50:14.322Z,63.80
2023-05-19T09:52:44.845Z,64.00
2023-05-19T09:55:14.510Z,64.10
2023-05-19T09:57:41.649Z,64.30
2023-05-19T10:00:14.545Z,64.30
2023-05-19T10:02:45.116Z,64.40
2023-05-19T10:05:23.182Z,64.50
2023-05-19T10:07:54.642Z,64.60
2023-05-19T10:10:22.573Z,64.70
2023-05-19T10:12:54.880Z,64.80
2023-05-19T10:15:23.197Z,64.90
2023-05-19T10:17:51.027Z,65.00
2023-05-19T10:20:19.591Z,65.10
2023-05-19T10:22:47.122Z,65.50
2023-05-19T10:25:18.711Z,65.00
2023-05-19T10:28:10.830Z,65.40
2023-05-19T10:30:41.059Z,65.50
2023-05-19T10:33:12.251Z,65.50
2023-05-19T10:36:08.450Z,65.60
2023-05-19T10:38:59.891Z,65.70
2023-05-19T10:41:52.130Z,65.80
2023-05-19T10:45:13.715Z,65.80
2023-05-19T10:47:42.140Z,66.00
2023-05-19T10:50:10.743Z,66.10
2023-05-19T10:52:39.361Z,66.10
2023-05-19T10:55:15.889Z,66.20
2023-05-19T10:57:58.076Z,66.30
2023-05-19T11:00:29.597Z,66.30
2023-05-19T11:03:13.861Z,67.00
2023-05-19T11:05:41.192Z,66.40
2023-05-19T11:08:08.628Z,66.50
2023-05-19T11:10:35.544Z,66.60
2023-05-19T11:13:06.374Z,66.80
2023-05-19T11:15:37.804Z,66.90
2023-05-19T11:18:06.228Z,66.90
2023-05-19T11:20:35.143Z,66.90
2023-05-19T11:23:18.697Z,67.00
2023-05-19T11:25:51.386Z,67.00
2023-05-19T11:28:20.193Z,67.00
2023-05-19T11:30:52.298Z,67.10
2023-05-19T11:33:20.747Z,67.00
2023-05-19T11:35:49.918Z,67.10
2023-05-19T11:38:21.184Z,67.10
2023-05-19T11:40:49.989Z,67.30
2023-05-19T11:43:16.957Z,67.40
2023-05-19T11:45:45.045Z,67.30
2023-05-19T11:48:13.039Z,67.40
2023-05-19T11:50:44.204Z,67.50
2023-05-19T11:53:15.150Z,67.60
2023-05-19T11:55:49.217Z,67.50
2023-05-19T11:58:17.324Z,67.50
2023-05-19T12:00:48.107Z,67.40
2023-05-19T12:03:15.574Z,67.40
2023-05-19T12:05:48.790Z,67.60
2023-05-19T12:08:19.400Z,67.60
2023-05-19T12:10:51.991Z,67.60
2023-05-19T12:13:19.685Z,67.60
2023-05-19T12:15:46.654Z,67.60
2023-05-19T12:18:13.679Z,67.60
2023-05-19T12:20:40.855Z,67.70
2023-05-19T12:23:07.904Z,67.90
2023-05-19T12:25:35.172Z,67.80
2023-05-19T12:28:05.564Z,68.10
2023-05-19T12:30:34.280Z,68.00
2023-05-19T12:33:02.965Z,68.00
2023-05-19T12:35:33.361Z,67.90
2023-05-19T12:38:06.802Z,67.90
2023-05-19T12:40:36.418Z,67.80
2023-05-19T12:43:04.124Z,67.70
2023-05-19T12:45:35.512Z,67.60
2023-05-19T12:48:12.552Z,67.60
2023-05-19T12:50:39.846Z,67.40
2023-05-19T12:53:16.901Z,67.20
2023-05-19T12:55:45.429Z,66.90
2023-05-19T12:58:13.181Z,66.90
2023-05-19T13:00:50.555Z,66.50
2023-05-19T13:03:23.327Z,66.50
2023-05-19T13:05:51.442Z,66.00
2023-05-19T13:08:21.846Z,65.70
2023-05-19T13:10:49.951Z,66.00
2023-05-19T13:13:17.574Z,65.20
2023-05-19T13:15:46.306Z,65.40
2023-05-19T13:18:14.597Z,65.20
2023-05-19T13:20:43.126Z,64.90
2023-05-19T13:23:14.379Z,64.50
2023-05-19T13:25:42.174Z,64.90
2023-05-19T13:28:09.859Z,64.50
2023-05-19T13:30:39.055Z,64.40
2023-05-19T13:33:06.580Z,64.70
2023-05-19T13:35:37.827Z,64.50
2023-05-19T13:38:10.241Z,64.10
2023-05-19T13:40:38.110Z,63.90
2023-05-19T13:43:05.267Z,63.80
2023-05-19T13:45:32.535Z,63.30
2023-05-19T13:47:59.726Z,63.00
2023-05-19T13:50:27.837Z,63.00
2023-05-19T13:52:55.091Z,63.20
2023-05-19T13:55:23.263Z,63.40
2023-05-19T13:57:53.238Z,63.00
2023-05-19T14:00:21.317Z,62.80
2023-05-19T14:02:48.523Z,62.90
2023-05-19T14:05:15.551Z,62.50
2023-05-19T14:07:42.737Z,62.30
2023-05-19T14:10:10.143Z,62.30
2023-05-19T14:12:54.877Z,62.00
2023-05-19T14:15:24.050Z,62.10
2023-05-19T14:17:53.504Z,62.20
2023-05-19T14:20:20.503Z,62.40
2023-05-19T14:22:47.480Z,62.00
2023-05-19T14:25:14.368Z,62.30
2023-05-19T14:27:42.827Z,62.10
2023-05-19T14:30:10.228Z,62.10
2023-05-19T14:32:37.383Z,61.90
2023-05-19T14:35:06.310Z,62.00
2023-05-19T14:37:33.654Z,62.20
2023-05-19T14:40:07.735Z,62.20
2023-05-19T14:42:37.910Z,62.70
2023-05-19T14:47:51.471Z,62.50
2023-05-19T14:50:18.579Z,63.10
2023-05-19T14:52:46.556Z,62.60
2023-05-19T14:55:13.478Z,63.10
2023-05-19T14:57:40.478Z,62.90
2023-05-19T15:00:10.234Z,63.30
2023-05-19T15:02:37.269Z,63.60
2023-05-19T15:05:04.627Z,63.80
2023-05-19T15:07:31.666Z,63.80
2023-05-19T15:09:58.619Z,64.20
2023-05-19T15:12:25.713Z,64.30
2023-05-19T15:14:52.715Z,64.40
2023-05-19T15:17:19.743Z,64.40
2023-05-19T15:19:46.781Z,64.20
2023-05-19T15:22:13.722Z,64.40
2023-05-19T15:24:41.356Z,64.70
2023-05-19T15:27:08.985Z,64.60
2023-05-19T15:29:36.078Z,64.60
2023-05-19T15:32:03.391Z,64.80
2023-05-19T15:34:30.299Z,65.00
2023-05-19T15:36:57.418Z,65.30
2023-05-19T15:39:24.424Z,65.40
2023-05-19T15:41:51.627Z,65.50
2023-05-19T15:44:18.601Z,65.70
2023-05-19T15:46:45.640Z,65.70
2023-05-19T15:49:13.136Z,65.60
2023-05-19T15:51:40.382Z,65.80
2023-05-19T15:54:07.304Z,65.90
2023-05-19T15:56:34.289Z,66.00
2023-05-19T15:59:01.411Z,66.10
2023-05-19T16:01:28.769Z,66.10
2023-05-19T16:03:55.863Z,66.10
2023-05-19T16:06:22.890Z,66.30
2023-05-19T16:08:49.788Z,66.30
2023-05-19T16:11:18.337Z,66.40
2023-05-19T16:13:45.298Z,66.50
2023-05-19T16:16:12.249Z,66.50
2023-05-19T16:18:39.368Z,66.60
2023-05-19T16:21:06.488Z,66.70
2023-05-19T16:23:33.522Z,66.70
2023-05-19T16:26:00.433Z,66.80
2023-05-19T16:28:28.089Z,66.90
2023-05-19T16:30:59.378Z,67.00
2023-05-19T16:33:28.139Z,67.00
2023-05-19T16:35:55.138Z,67.00
2023-05-19T16:38:22.108Z,67.00
2023-05-19T16:40:49.554Z,67.80
2023-05-19T16:43:16.447Z,67.30
2023-05-19T16:45:43.391Z,67.40
2023-05-19T16:48:10.579Z,67.40
2023-05-19T16:50:37.787Z,67.40
2023-05-19T16:53:04.862Z,67.50
2023-05-19T16:55:31.750Z,67.60
2023-05-19T16:57:59.433Z,67.80
2023-05-19T17:00:27.472Z,67.80
2023-05-19T17:02:54.516Z,68.00
2023-05-19T17:05:21.518Z,68.00
2023-05-19T17:07:48.860Z,68.00
2023-05-19T17:10:16.084Z,68.30
2023-05-19T17:12:43.134Z,68.00
2023-05-19T17:15:11.020Z,68.00
2023-05-19T17:17:38.004Z,67.30
2023-05-19T17:20:05.515Z,67.60
2023-05-19T17:22:32.572Z,66.90
2023-05-19T17:25:00.601Z,67.10
2023-05-19T17:27:27.533Z,67.10
2023-05-19T17:29:54.438Z,66.60
2023-05-19T17:32:25.936Z,66.60
2023-05-19T17:34:55.352Z,66.50
2023-05-19T17:37:25.802Z,66.50
2023-05-19T17:39:53.052Z,66.60
2023-05-19T17:42:20.419Z,66.40
2023-05-19T17:44:48.719Z,66.40
2023-05-19T17:47:15.771Z,66.50
2023-05-19T17:49:47.710Z,66.40
2023-05-19T17:52:16.037Z,66.40
2023-05-19T17:54:43.206Z,66.50
2023-05-19T17:57:14.813Z,66.40
2023-05-19T17:59:42.285Z,66.60
2023-05-19T18:02:10.533Z,66.60
2023-05-19T18:04:38.127Z,66.60
2023-05-19T18:07:07.087Z,66.70
2023-05-19T18:09:40.845Z,66.70
2023-05-19T18:12:08.304Z,66.90
2023-05-19T18:14:40.858Z,66.90
2023-05-19T18:17:08.028Z,67.00
2023-05-19T18:19:35.248Z,67.00
2023-05-19T18:22:02.377Z,67.30
2023-05-19T18:24:29.458Z,67.30
2023-05-19T18:26:56.709Z,67.40
2023-05-19T18:29:23.799Z,67.40
2023-05-19T18:31:50.855Z,67.50
2023-05-19T18:34:18.009Z,67.60
2023-05-19T18:36:46.291Z,67.60
2023-05-19T18:39:13.617Z,67.80
2023-05-19T18:41:42.908Z,67.80
2023-05-19T18:44:10.556Z,67.90
2023-05-19T18:46:38.724Z,68.00
2023-05-19T18:49:07.180Z,68.10
2023-05-19T18:51:36.316Z,68.20
2023-05-19T18:54:03.546Z,68.10
2023-05-19T18:56:31.308Z,68.20
2023-05-19T18:58:59.563Z,68.30
2023-05-19T19:01:26.823Z,68.40
2023-05-19T19:03:53.968Z,68.50
2023-05-19T19:06:23.463Z,68.50
2023-05-19T19:08:51.231Z,68.50
2023-05-19T19:11:18.475Z,68.60
2023-05-19T19:13:47.151Z,68.70
2023-05-19T19:16:15.349Z,68.60
2023-05-19T19:18:42.438Z,68.70
2023-05-19T19:21:09.907Z,68.80
2023-05-19T19:23:37.022Z,68.70
2023-05-19T19:26:04.715Z,68.70
2023-05-19T19:28:31.787Z,68.90
2023-05-19T19:30:58.986Z,68.90
2023-05-19T19:33:26.028Z,69.00
2023-05-19T19:35:53.061Z,69.00
2023-05-19T19:38:20.139Z,69.10
2023-05-19T19:40:47.074Z,69.30
2023-05-19T19:43:14.009Z,69.10
2023-05-19T19:45:42.348Z,68.90
2023-05-19T19:48:10.034Z,69.00
2023-05-19T19:50:37.064Z,68.70
2023-05-19T19:53:04.543Z,68.80
2023-05-19T19:55:31.821Z,69.10
2023-05-19T19:57:59.892Z,69.50
2023-05-19T20:00:26.864Z,69.80
2023-05-19T20:03:03.541Z,70.00
2023-05-19T20:05:31.920Z,69.90
2023-05-19T20:07:58.850Z,69.70
2023-05-19T20:10:26.958Z,69.60
2023-05-19T20:12:53.946Z,69.50
2023-05-19T20:15:20.961Z,69.50
2023-05-19T20:17:47.920Z,69.40
2023-05-19T20:20:14.926Z,69.60
2023-05-19T20:22:41.886Z,69.80
2023-05-19T20:25:11.470Z,70.10
2023-05-19T20:27:38.380Z,70.10
2023-05-19T20:30:05.936Z,70.30
2023-05-19T20:32:33.005Z,70.30
2023-05-19T20:35:02.206Z,70.30
2023-05-19T20:37:29.134Z,70.30
2023-05-19T20:39:56.081Z,70.40
2023-05-19T20:42:23.036Z,70.40
2023-05-19T20:44:50.007Z,70.40
2023-05-19T20:47:21.279Z,70.70
2023-05-19T20:49:51.228Z,70.60
2023-05-19T20:52:18.652Z,70.70
2023-05-19T20:54:46.513Z,70.70
2023-05-19T20:57:13.712Z,70.70
2023-05-19T20:59:43.279Z,70.70
2023-05-19T21:02:11.688Z,70.70
2023-05-19T21:04:39.291Z,70.70
2023-05-19T21:07:06.443Z,70.80
2023-05-19T21:09:33.403Z,70.70
2023-05-19T21:12:00.275Z,70.70
2023-05-19T21:14:27.206Z,70.70
2023-05-19T21:16:56.006Z,70.70
2023-05-19T21:19:23.361Z,70.80
2023-05-19T21:21:50.388Z,70.90
2023-05-19T21:24:17.530Z,70.80
2023-05-19T21:26:44.475Z,70.90
2023-05-19T21:29:11.443Z,71.30
2023-05-19T21:31:39.518Z,71.60
2023-05-19T21:36:36.996Z,70.90
2023-05-19T21:39:04.703Z,70.60
2023-05-19T21:41:33.949Z,70.50
2023-05-19T21:44:00.844Z,70.80
2023-05-19T21:46:29.162Z,71.80
2023-05-19T21:48:56.465Z,72.10
2023-05-19T21:51:23.381Z,72.30
2023-05-19T21:53:50.303Z,72.70
2023-05-19T21:56:18.334Z,72.30
2023-05-19T21:58:45.409Z,71.50
2023-05-19T22:01:13.315Z,72.40
2023-05-19T22:03:40.297Z,72.90
2023-05-19T22:06:09.288Z,73.10
2023-05-19T22:08:36.248Z,73.20
2023-05-19T22:11:03.317Z,73.00
2023-05-19T22:13:32.037Z,73.70
2023-05-19T22:15:59.159Z,73.40
2023-05-19T22:18:26.350Z,73.60
2023-05-19T22:20:53.220Z,73.50
2023-05-19T22:23:22.674Z,73.60
2023-05-19T22:25:49.584Z,73.70
2023-05-19T22:28:16.555Z,74.00
2023-05-19T22:30:44.242Z,74.10
2023-05-19T22:33:11.754Z,74.10
2023-05-19T22:35:39.037Z,74.00
2023-05-19T22:38:07.507Z,73.90
2023-05-19T22:40:37.106Z,73.80
2023-05-19T22:43:04.143Z,74.20
2023-05-19T22:45:31.899Z,73.90
2023-05-19T22:47:58.895Z,74.40
2023-05-19T22:50:25.849Z,73.50
2023-05-19T22:52:52.819Z,74.50
2023-05-19T22:55:19.838Z,74.30
2023-05-19T22:57:47.287Z,74.70
2023-05-19T23:00:14.654Z,74.30
2023-05-19T23:02:42.039Z,75.10
2023-05-19T23:05:09.223Z,75.30
2023-05-19T23:07:36.374Z,75.30
2023-05-19T23:10:04.431Z,75.40
2023-05-19T23:12:31.338Z,75.60
2023-05-19T23:14:58.374Z,75.80
2023-05-19T23:17:25.320Z,76.10
2023-05-19T23:19:52.340Z,76.30
2023-05-19T23:22:19.522Z,76.30
2023-05-19T23:24:46.602Z,76.00
2023-05-19T23:27:13.520Z,76.30
2023-05-19T23:29:40.415Z,76.40
2023-05-19T23:32:07.820Z,76.50
2023-05-19T23:34:36.029Z,76.50
2023-05-19T23:37:03.015Z,76.60
2023-05-19T23:39:29.935Z,76.80
2023-05-19T23:41:58.348Z,77.10
2023-05-19T23:44:27.021Z,76.80
2023-05-19T23:46:54.210Z,77.00
2023-05-19T23:49:21.131Z,77.40
2023-05-19T23:51:48.104Z,77.50
2023-05-19T23:54:16.138Z,77.70
2023-05-19T23:56:43.043Z,77.50
2023-05-19T23:59:09.897Z,77.30
